• Join FlightAware (Why Join?)
  • Login
  • US Flag 
10:24PM EDT


 

Airport Tracker/Info


-or-


 

Live Flight TrackerFlight Track Log ✈ N70RB ✈ 02-May-2013 ✈ KBTL - KSBN

Flight Track Log - Related Links

Times and Time Zones

All times are in EDT time to prevent confusion due to time zone crossing. See the N70RB flight status page for this flight to view local times or setup timezone preferences in your user account.

Time Position Orientation Groundspeed Altitude Reporting Facility
EDT Latitude Longitude Course Direction KTS MPH feet Rate Location/Type
03:31PM 42.2600 -85.3400 233° Southwest 104 120 3,500  Level Chicago Center
03:32PM 42.2389 -85.3778 233° Southwest 105 121 4,200 420 Climbing Chicago Center
03:33PM 42.2208 -85.4106 233° Southwest 107 123 4,400 60 Climbing Chicago Center
03:34PM 42.1972 -85.4531 233° Southwest 131 151 4,400  Level Chicago Center
03:35PM 42.1847 -85.4705 233° Southwest  Level Estimated
03:35PM 42.1764 -85.4914 234° Southwest 131 151 4,500  Level Chicago Center
03:36PM 42.1643 -85.5071 233° Southwest  Level Estimated
03:36PM 42.1533 -85.5300 231° Southwest 131 151 4,500  Level Chicago Center
03:37PM 42.1269 -85.5797 234° Southwest 135 155 4,500 -60 Level Chicago Center
03:38PM 42.1053 -85.6186 233° Southwest 134 154 4,400 -60 Descending Chicago Center
03:39PM 42.0836 -85.6569 233° Southwest 131 151 4,400  Level Chicago Center
03:40PM 42.0619 -85.6956 233° Southwest 130 150 4,500  Climbing Chicago Center
03:41PM 42.0392 -85.7347 232° Southwest 131 151 4,400 -60 Descending Chicago Center
03:42PM 42.0175 -85.7733 233° Southwest 130 150 4,400  Level Chicago Center
03:43PM 41.9917 -85.8194 233° Southwest 130 150 4,500  Climbing Chicago Center
03:44PM 41.9694 -85.8589 233° Southwest 131 151 4,500  Level Chicago Center
03:45PM 41.9472 -85.8975 232° Southwest 132 152 4,500  Level Chicago Center
03:46PM 41.9258 -85.9353 233° Southwest 129 148 4,500 -60 Level Chicago Center
03:47PM 41.9025 -85.9758 232° Southwest 135 155 4,400  Descending Chicago Center
03:48PM 41.8786 -86.0189 233° Southwest 143 165 4,500  Climbing Chicago Center
03:50PM 41.8511 -86.0658 232° Southwest 135 155 4,500 -180 Level Chicago Center
03:51PM 41.8314 -86.1022 234° Southwest 127 146 4,200 -660 Descending Chicago Center
03:52PM 41.8111 -86.1422 236° Southwest 127 146 3,200 -1,020 Descending Chicago Center
03:53PM 41.7889 -86.1828 234° Southwest 131 151 2,200 -780 Descending Chicago Center
03:54PM 41.7669 -86.2217 233° Southwest 132 152 1,700 -240 Descending Chicago Center
03:55PM 41.7350 -86.2497 213° Southwest 123 142 1,800 -180 Climbing Chicago Center
03:56PM 41.7011 -86.2558 188° South 119 137 1,400 -420 Descending Chicago Center
03:58PM 41.7000 -86.3167 246° West  Level FlightAware Approximate
04:05PM 41.7082 -86.3173 246° West  Level Estimated
04:06PM 41.7082 -86.3173 246° West  Level Estimated